Accueil
METAR-TAF:

METAR-TAF

Aéroports :

Pékin, Chine

Aéroport international de Pékin-Capitale

latitude: 39-56N, longitude: 116-17E, altitude: 55 m

Observation

Le bulletin a été fait il y a 10 minutes, à 20:00 UTC
Vent 4 kt de sud
Température -3°C
Humidité 54%
Pression 1033 hPa
Visibilité 10 km ou plus
pas de nuages en-dessous de 1500 mètres et pas de cumulonimbus.

METAR: ZBAA 232000Z 17002MPS CAVOK M03/M11 Q1033 NOSIG

Heure: 04:10 (20:10 UTC)

Prévision

Le bulletin a été fait il y a 4 heures et 40 minutes, à 15:30 UTC
Prévision valable du 23 à 18 UTC au 24 à 18 UTC
Vent 8 kt de sud
Visibilité: 3500 m
brume sèche

TAF: ZBAA 231530Z 2318/2418 18004MPS 3500 HZ NSC TX04/2407Z TNM05/21Z

Observations et prévisions météorologiques de plus de 4000 aéroports (messages METAR et TAF).

Les stations disponibles sont représentées par des disques jaunes et rouges sur la carte.

Passer la souris dessus pour voir le nom de la station.

Cliquer dessus pour voir les observations et prévisions météorologiques.

Pour changer de carte: cliquez sur les boutons verts avec une croix noire pour zoomer, sur le bouton vert avec un tiret pour effectuer un zoom arrière, ou sur les flèches vertes pour les cartes adjacentes.


METAR-TAF: